This is the latest recevied weather packets stored in our database for station/object KJ7BRE-1. If no packets are shown the sender has not sent any weather packets the latest 10 day(s).
| Time | Temp. | Humidity | Pressure | Rain* | Wind** | Luminosity | Snow |
|---|---|---|---|---|---|---|---|
| 1787522160 | 25° C | 49% | 1017.9 hPa | 0 mm | - | - | - |
| 1787521859 | 25.56° C | 48% | 1017.9 hPa | 0 mm | - | - | - |
| 1787521558 | 26.11° C | 47% | 1017.9 hPa | 0 mm | - | - | - |
| 1787521256 | 26.11° C | 46% | 1017.9 hPa | 0 mm | - | - | - |
| 1787520955 | 26.11° C | 46% | 1017.9 hPa | 0 mm | - | - | - |
| 1787520654 | 25.56° C | 48% | 1017.9 hPa | 0 mm | - | - | - |
| 1787520353 | 25.56° C | 47% | 1017.9 hPa | 0 mm | - | - | - |
| 1787520051 | 25.56° C | 47% | 1017.9 hPa | 0 mm | - | - | - |
| 1787519750 | 26.11° C | 46% | 1018.3 hPa | 0 mm | - | - | - |
| 1787519449 | 25.56° C | 47% | 1017.9 hPa | 0 mm | - | - | - |
| 1787519148 | 25° C | 47% | 1017.9 hPa | 0 mm | - | - | - |
| 1787518847 | 25° C | 47% | 1018.3 hPa | 0 mm | - | - | - |
| 1787518545 | 25° C | 48% | 1018.3 hPa | 0 mm | - | - | - |
| 1787518244 | 26.11° C | 46% | 1018.3 hPa | 0 mm | - | - | - |
| 1787517943 | 25° C | 48% | 1018.3 hPa | 0 mm | - | - | - |
| 1787517642 | 25° C | 48% | 1018.3 hPa | 0 mm | - | - | - |
| 1787517340 | 25.56° C | 47% | 1018.3 hPa | 0 mm | - | - | - |
| 1787517039 | 24.44° C | 49% | 1018.6 hPa | 0 mm | - | - | - |
| 1787516738 | 24.44° C | 49% | 1018.3 hPa | 0 mm | - | - | - |
| 1787516437 | 23.33° C | 52% | 1018.6 hPa | 0 mm | - | - | - |
| 1787516136 | 23.89° C | 53% | 1018.6 hPa | 0 mm | - | - | - |
| 1787515834 | 23.33° C | 52% | 1018.6 hPa | 0 mm | - | - | - |
| 1787515533 | 23.89° C | 52% | 1018.6 hPa | 0 mm | - | - | - |
| 1787515232 | 24.44° C | 51% | 1018.6 hPa | 0 mm | - | - | - |
| 1787514931 | 23.89° C | 54% | 1018.6 hPa | 0 mm | - | - | - |
* Rain latest hour (hover to see other rain measurements)
** Current wind speed in m/s (hover to see current wind gust speed)